Time;durP1;ratioP1;P1;durP2;ratioP2;P2;SDS_P1;SDS_P2;PMS_P1;PMS_P2;Temp;Humidity;BMP_temperature;BMP_pressure;BME280_temperature;BME280_humidity;BME280_pressure;Samples;Min_cycle;Max_cycle;Signal;HPM_P1;HPM_P2
2021/06/24 00:01:13;;;;;;;1.60;1.50;;;29.10;68.00;;;;;;5063555;28;20462;-24
2021/06/24 00:03:44;;;;;;;1.60;1.50;;;29.00;68.50;;;;;;5064148;28;20509;-25
2021/06/24 00:06:15;;;;;;;2.63;1.47;;;29.00;70.00;;;;;;5063378;28;20777;-25
2021/06/24 00:08:48;;;;;;;1.40;1.30;;;29.10;68.20;;;;;;5063515;28;20453;-26
2021/06/24 00:11:19;;;;;;;1.50;1.37;;;29.00;68.80;;;;;;5061391;28;20470;-24
2021/06/24 00:13:50;;;;;;;2.07;1.50;;;28.90;68.60;;;;;;5063947;28;20504;-27
2021/06/24 00:16:21;;;;;;;1.70;1.47;;;29.00;70.00;;;;;;5064220;28;20451;-26
2021/06/24 00:18:52;;;;;;;1.37;1.23;;;29.20;68.80;;;;;;5050894;28;20528;-25
2021/06/24 00:21:23;;;;;;;1.73;1.53;;;29.20;68.00;;;;;;5053300;28;20456;-23
2021/06/24 00:23:56;;;;;;;1.47;1.30;;;29.30;69.20;;;;;;5062438;28;20455;-22
2021/06/24 00:26:27;;;;;;;1.73;1.50;;;29.30;67.60;;;;;;5060933;28;20459;-27
2021/06/24 00:28:58;;;;;;;1.47;1.33;;;29.00;68.20;;;;;;5063190;28;20480;-25
2021/06/24 00:31:29;;;;;;;1.20;1.10;;;28.80;68.60;;;;;;5060996;28;20487;-23
2021/06/24 00:34:01;;;;;;;2.50;1.00;;;28.60;68.10;;;;;;5055441;28;20481;-24
2021/06/24 00:36:32;;;;;;;1.13;1.10;;;28.50;68.60;;;;;;5060803;28;20457;-25
2021/06/24 00:39:05;;;;;;;1.10;1.10;;;28.50;68.10;;;;;;5060403;28;20533;-24
2021/06/24 00:41:36;;;;;;;2.20;1.17;;;28.50;69.80;;;;;;5061974;28;20454;-24
2021/06/24 00:44:08;;;;;;;2.00;1.40;;;28.30;69.70;;;;;;5062009;28;20452;-27
2021/06/24 00:46:38;;;;;;;1.93;1.20;;;28.10;70.20;;;;;;5061383;28;20453;-27
2021/06/24 00:49:11;;;;;;;2.30;1.03;;;28.00;71.40;;;;;;5061544;28;20480;-25
2021/06/24 00:51:42;;;;;;;2.37;1.17;;;28.10;70.80;;;;;;5062485;28;20840;-24
2021/06/24 00:54:15;;;;;;;1.20;1.10;;;28.10;69.80;;;;;;5061344;28;20476;-26
2021/06/24 00:56:45;;;;;;;1.20;1.10;;;28.10;68.30;;;;;;5062930;28;20458;-25
2021/06/24 00:59:17;;;;;;;1.33;1.23;;;28.00;68.50;;;;;;5060888;28;20526;-28
2021/06/24 01:01:47;;;;;;;1.10;1.10;;;28.00;68.50;;;;;;5062198;28;20462;-23
2021/06/24 01:04:21;;;;;;;1.60;1.47;;;27.90;69.90;;;;;;5062709;28;20451;-26
2021/06/24 01:06:53;;;;;;;3.20;1.50;;;27.80;70.00;;;;;;5048151;28;20458;-22
2021/06/24 01:09:26;;;;;;;2.87;1.47;;;27.90;69.20;;;;;;5061520;28;20476;-28
2021/06/24 01:11:57;;;;;;;2.40;1.20;;;27.90;68.30;;;;;;5062938;28;20484;-24
2021/06/24 01:14:28;;;;;;;3.53;1.17;;;27.90;68.60;;;;;;5062681;28;20502;-23
2021/06/24 01:16:59;;;;;;;1.47;0.93;;;27.90;68.40;;;;;;5062090;28;20933;-25
2021/06/24 01:19:30;;;;;;;0.80;0.80;;;27.70;69.30;;;;;;5062637;28;20458;-22
2021/06/24 01:22:02;;;;;;;1.77;1.67;;;27.70;69.40;;;;;;5062710;28;20515;-24
2021/06/24 01:24:34;;;;;;;0.97;0.97;;;27.60;70.00;;;;;;5061842;28;20952;-23
2021/06/24 01:27:06;;;;;;;1.93;1.03;;;27.50;70.70;;;;;;5062158;28;20454;-26
2021/06/24 01:29:37;;;;;;;1.23;0.93;;;27.40;70.40;;;;;;5053566;28;20457;-24
2021/06/24 01:32:08;;;;;;;1.10;1.10;;;27.40;71.30;;;;;;5061954;28;20461;-23
2021/06/24 01:34:42;;;;;;;1.90;1.03;;;27.40;72.80;;;;;;5061417;28;20512;-23
2021/06/24 01:37:13;;;;;;;1.10;1.00;;;27.40;72.60;;;;;;5061364;28;20532;-23
2021/06/24 01:39:45;;;;;;;1.47;1.33;;;27.30;74.30;;;;;;5060660;28;20446;-23
2021/06/24 01:42:16;;;;;;;4.43;3.90;;;27.20;74.80;;;;;;5061938;28;20461;-26
2021/06/24 01:44:47;;;;;;;1.90;1.70;;;27.20;75.40;;;;;;5061438;28;20491;-29
2021/06/24 01:47:18;;;;;;;4.80;4.17;;;27.10;75.80;;;;;;5061299;28;20480;-23
2021/06/24 01:49:49;;;;;;;1.70;1.60;;;27.00;76.30;;;;;;5065698;28;20926;-26
2021/06/24 01:52:20;;;;;;;1.63;1.23;;;26.90;76.40;;;;;;5065218;28;20481;-24
2021/06/24 01:54:52;;;;;;;6.23;5.63;;;26.90;76.40;;;;;;5060917;28;20512;-24
2021/06/24 01:57:23;;;;;;;1.70;1.60;;;26.90;77.40;;;;;;5062272;28;20452;-24
2021/06/24 01:59:54;;;;;;;1.53;1.37;;;26.80;76.70;;;;;;5062074;28;20456;-26
2021/06/24 02:02:25;;;;;;;23.23;21.47;;;26.80;76.60;;;;;;5061460;28;20497;-23
2021/06/24 02:04:56;;;;;;;6.87;6.27;;;26.70;77.40;;;;;;5061947;28;20514;-23
2021/06/24 02:07:27;;;;;;;1.60;1.50;;;26.70;78.40;;;;;;5061092;28;20510;-25
2021/06/24 02:10:00;;;;;;;1.90;1.73;;;26.60;78.50;;;;;;5060476;28;20453;-23
2021/06/24 02:12:31;;;;;;;1.30;1.20;;;26.50;77.90;;;;;;5061266;28;20453;-25
2021/06/24 02:15:02;;;;;;;1.60;1.47;;;26.40;78.40;;;;;;5047850;28;20556;-24
2021/06/24 02:17:33;;;;;;;1.40;1.30;;;26.40;78.60;;;;;;5060778;28;20444;-27
2021/06/24 02:20:04;;;;;;;1.50;1.40;;;26.30;80.10;;;;;;5061653;28;20503;-27
2021/06/24 02:22:35;;;;;;;1.80;1.70;;;26.30;78.60;;;;;;5061068;28;20457;-24
2021/06/24 02:25:12;;;;;;;1.63;1.30;;;26.30;76.00;;;;;;5052422;28;20518;-24
2021/06/24 02:27:44;;;;;;;1.23;1.13;;;26.30;75.50;;;;;;5060821;28;20471;-23
2021/06/24 02:30:16;;;;;;;1.00;1.00;;;26.20;73.60;;;;;;5056778;28;20509;-22
2021/06/24 02:32:48;;;;;;;2.57;1.10;;;26.10;73.70;;;;;;5061781;28;20450;-23
2021/06/24 02:35:20;;;;;;;1.63;0.97;;;26.10;72.90;;;;;;5061331;28;20464;-24
2021/06/24 02:37:54;;;;;;;3.30;1.30;;;26.00;73.00;;;;;;5061507;28;20495;-28
2021/06/24 02:40:27;;;;;;;1.73;1.40;;;25.90;73.10;;;;;;5060315;28;20925;-24
2021/06/24 02:42:58;;;;;;;1.60;1.50;;;26.00;74.10;;;;;;5060610;28;20480;-25
2021/06/24 02:45:30;;;;;;;1.57;1.47;;;25.80;74.60;;;;;;5061350;28;20452;-23
2021/06/24 02:48:02;;;;;;;1.40;1.30;;;25.80;74.70;;;;;;5061178;28;20598;-24
2021/06/24 02:50:33;;;;;;;1.37;1.27;;;25.70;72.80;;;;;;5061171;28;20947;-27
2021/06/24 02:53:04;;;;;;;1.23;1.23;;;25.60;70.70;;;;;;5060738;28;20456;-23
2021/06/24 02:55:37;;;;;;;1.20;1.10;;;25.60;67.30;;;;;;5059387;28;20484;-23
2021/06/24 02:58:08;;;;;;;1.00;0.90;;;25.60;63.20;;;;;;5062232;28;20497;-24
2021/06/24 03:00:40;;;;;;;0.70;0.70;;;25.50;62.80;;;;;;5061038;28;20448;-26
2021/06/24 03:03:11;;;;;;;0.70;0.50;;;25.50;62.20;;;;;;5061462;28;20460;-23
2021/06/24 03:05:42;;;;;;;1.07;0.80;;;25.40;62.00;;;;;;5061380;28;20445;-25
2021/06/24 03:08:13;;;;;;;0.80;0.80;;;25.30;61.50;;;;;;5061694;28;20476;-23
2021/06/24 03:10:46;;;;;;;0.90;0.70;;;25.20;62.70;;;;;;5060008;28;20464;-27
2021/06/24 03:13:17;;;;;;;2.10;0.90;;;25.20;62.10;;;;;;5058409;28;20457;-24
2021/06/24 03:15:48;;;;;;;0.77;0.70;;;25.10;63.00;;;;;;5061281;28;20515;-25
2021/06/24 03:18:19;;;;;;;0.60;0.53;;;25.00;62.80;;;;;;5061991;28;20447;-21
2021/06/24 03:20:50;;;;;;;0.73;0.63;;;25.00;63.00;;;;;;5061304;28;20441;-24
2021/06/24 03:23:21;;;;;;;0.70;0.70;;;24.90;63.10;;;;;;5062142;28;20492;-22
2021/06/24 03:25:55;;;;;;;1.10;1.00;;;24.90;63.80;;;;;;5060361;28;20476;-28
2021/06/24 03:28:26;;;;;;;1.10;0.70;;;24.90;63.90;;;;;;5058956;28;20466;-22
2021/06/24 03:30:57;;;;;;;0.77;0.77;;;24.90;64.10;;;;;;5060670;28;20467;-27
2021/06/24 03:33:28;;;;;;;1.20;0.80;;;24.90;64.30;;;;;;5061160;28;20452;-26
2021/06/24 03:35:59;;;;;;;0.70;0.70;;;24.80;65.30;;;;;;5046517;28;20476;-23
2021/06/24 03:38:30;;;;;;;1.13;0.80;;;24.70;63.80;;;;;;5061465;28;20487;-28
2021/06/24 03:41:03;;;;;;;0.50;0.50;;;24.70;64.00;;;;;;5063344;28;20451;-25
2021/06/24 03:43:34;;;;;;;0.50;0.50;;;24.60;64.90;;;;;;5064382;28;20467;-24
2021/06/24 03:46:04;;;;;;;0.50;0.50;;;24.50;66.20;;;;;;5064045;28;20452;-22
2021/06/24 03:48:37;;;;;;;1.47;0.90;;;24.30;66.80;;;;;;5062124;28;20503;-24
2021/06/24 03:51:08;;;;;;;0.83;0.70;;;24.30;66.40;;;;;;5067833;28;20528;-24
2021/06/24 03:53:39;;;;;;;0.60;0.60;;;24.20;66.60;;;;;;5064877;28;20597;-24
2021/06/24 03:56:12;;;;;;;0.97;0.73;;;24.10;67.00;;;;;;5063837;28;20547;-22
2021/06/24 03:58:43;;;;;;;1.10;1.00;;;24.00;67.80;;;;;;5065304;28;20518;-22
2021/06/24 04:01:14;;;;;;;1.03;0.83;;;24.00;67.70;;;;;;5064881;28;20456;-23
2021/06/24 04:03:45;;;;;;;2.63;0.80;;;24.00;67.30;;;;;;5065118;28;20941;-26
2021/06/24 04:06:16;;;;;;;1.63;0.70;;;23.90;68.10;;;;;;5064401;28;20440;-24
2021/06/24 04:08:47;;;;;;;1.93;0.90;;;23.80;68.60;;;;;;5064902;28;20463;-23
2021/06/24 04:11:20;;;;;;;0.80;0.80;;;23.70;69.30;;;;;;5064369;28;20480;-23
2021/06/24 04:13:51;;;;;;;0.70;0.70;;;23.60;70.50;;;;;;5064329;28;20438;-23
2021/06/24 04:16:22;;;;;;;0.77;0.77;;;23.60;70.40;;;;;;5064672;28;20465;-25
2021/06/24 04:18:56;;;;;;;1.10;1.00;;;23.50;71.20;;;;;;5065170;28;20416;-22
2021/06/24 04:21:27;;;;;;;0.77;0.50;;;23.40;71.70;;;;;;5064712;28;20469;-22
2021/06/24 04:23:59;;;;;;;0.67;0.60;;;23.30;72.70;;;;;;5063561;28;20430;-23
2021/06/24 04:26:31;;;;;;;1.90;0.60;;;23.20;73.90;;;;;;5063790;28;20449;-26
2021/06/24 04:29:02;;;;;;;1.37;0.60;;;23.10;74.90;;;;;;5064234;28;20445;-21
2021/06/24 04:31:33;;;;;;;0.77;0.67;;;23.00;75.20;;;;;;5061218;28;20437;-23
2021/06/24 04:34:05;;;;;;;1.00;1.00;;;22.90;75.80;;;;;;5063596;28;20452;-28
2021/06/24 04:36:41;;;;;;;0.70;0.70;;;22.80;77.40;;;;;;5063745;28;20494;-23
2021/06/24 04:39:14;;;;;;;0.90;0.70;;;22.80;78.20;;;;;;5062901;28;20452;-22
2021/06/24 04:41:46;;;;;;;0.80;0.80;;;22.70;79.40;;;;;;5063951;28;20613;-26
2021/06/24 04:44:18;;;;;;;3.43;0.80;;;22.60;80.00;;;;;;5063706;28;20480;-23
2021/06/24 04:46:49;;;;;;;1.70;0.80;;;22.50;81.00;;;;;;5064227;28;20463;-24
2021/06/24 04:49:20;;;;;;;1.50;0.80;;;22.50;82.00;;;;;;5063972;28;20903;-24
2021/06/24 04:52:10;;;;;;;1.33;0.80;;;22.40;82.50;;;;;;5061601;28;20431;-22
2021/06/24 04:54:41;;;;;;;0.80;0.80;;;22.40;82.90;;;;;;5062430;28;20922;-24
2021/06/24 04:57:13;;;;;;;1.37;0.70;;;22.30;83.50;;;;;;5048216;28;20544;-23
2021/06/24 04:59:44;;;;;;;0.97;0.60;;;22.20;84.70;;;;;;5063084;28;20415;-23
2021/06/24 05:02:17;;;;;;;1.00;0.70;;;22.10;84.70;;;;;;5063472;28;20495;-23
2021/06/24 05:04:49;;;;;;;1.07;1.00;;;22.10;85.20;;;;;;5062470;28;20450;-22
2021/06/24 05:07:20;;;;;;;0.90;0.63;;;22.00;86.10;;;;;;5057229;28;20486;-26
2021/06/24 05:09:51;;;;;;;0.93;0.90;;;22.00;86.60;;;;;;5062171;28;20483;-23
2021/06/24 05:12:28;;;;;;;1.10;1.00;;;21.80;87.60;;;;;;5063850;28;20456;-22
2021/06/24 05:15:00;;;;;;;0.73;0.73;;;21.80;88.10;;;;;;5062125;28;20458;-24
2021/06/24 05:17:31;;;;;;;0.83;0.83;;;21.70;88.60;;;;;;5062706;28;20488;-23
2021/06/24 05:20:02;;;;;;;1.13;0.90;;;21.60;90.10;;;;;;5062812;28;20740;-23
2021/06/24 05:22:33;;;;;;;2.77;1.20;;;21.60;90.60;;;;;;5063604;28;20419;-24
2021/06/24 05:25:05;;;;;;;1.47;1.23;;;21.50;90.70;;;;;;5061469;28;20444;-24
2021/06/24 05:27:38;;;;;;;1.17;1.07;;;21.40;91.30;;;;;;5063643;28;20476;-22
2021/06/24 05:30:10;;;;;;;1.63;1.07;;;21.40;91.60;;;;;;5050616;28;20453;-22
2021/06/24 05:32:41;;;;;;;2.30;1.23;;;21.30;92.00;;;;;;5055186;28;21182;-22
2021/06/24 05:35:13;;;;;;;1.00;0.90;;;21.30;92.00;;;;;;5062360;28;20499;-22
2021/06/24 05:37:44;;;;;;;1.70;0.97;;;21.20;92.30;;;;;;5063269;28;20480;-21
2021/06/24 05:40:16;;;;;;;0.90;0.90;;;21.30;92.20;;;;;;5061865;28;20448;-25
2021/06/24 05:42:48;;;;;;;1.90;1.10;;;21.20;92.70;;;;;;5058108;28;20951;-23
2021/06/24 05:45:26;;;;;;;0.90;0.90;;;21.10;93.00;;;;;;5062591;28;20430;-24
2021/06/24 05:47:59;;;;;;;0.90;0.90;;;21.00;93.60;;;;;;5063268;28;20433;-24
2021/06/24 05:50:31;;;;;;;1.30;1.20;;;21.00;93.90;;;;;;5062993;28;20426;-23
2021/06/24 05:53:02;;;;;;;1.30;1.20;;;20.90;94.00;;;;;;5063606;28;20447;-22
2021/06/24 05:55:51;;;;;;;1.20;1.10;;;20.80;94.60;;;;;;5061243;28;20516;-22
2021/06/24 05:58:24;;;;;;;1.13;1.03;;;20.80;95.00;;;;;;5062930;28;20494;-23
2021/06/24 06:00:57;;;;;;;1.03;1.00;;;20.70;95.20;;;;;;5062242;28;20482;-23
2021/06/24 06:03:28;;;;;;;1.30;1.00;;;20.70;95.40;;;;;;5062371;28;20439;-24
2021/06/24 06:05:59;;;;;;;1.57;1.27;;;20.60;96.10;;;;;;5061770;28;20956;-22
2021/06/24 06:08:30;;;;;;;1.17;1.00;;;20.50;96.80;;;;;;5063149;28;20468;-22
2021/06/24 06:11:02;;;;;;;1.27;1.17;;;20.40;97.20;;;;;;5061569;28;20885;-21
2021/06/24 06:13:34;;;;;;;1.50;1.07;;;20.40;97.80;;;;;;5062417;28;20456;-22
2021/06/24 06:16:05;;;;;;;1.10;0.87;;;20.30;97.90;;;;;;5061363;28;20457;-22
2021/06/24 06:18:36;;;;;;;0.90;0.90;;;20.30;97.90;;;;;;5062001;28;20495;-22
2021/06/24 06:21:15;;;;;;;0.90;0.90;;;20.30;98.00;;;;;;5059085;28;20506;-23
2021/06/24 06:23:46;;;;;;;1.73;1.17;;;20.20;98.50;;;;;;5063116;28;20786;-22
2021/06/24 06:26:17;;;;;;;1.17;1.00;;;20.10;99.10;;;;;;5061414;28;20430;-21
2021/06/24 06:28:50;;;;;;;1.13;1.07;;;20.00;99.60;;;;;;5062137;28;20458;-22
2021/06/24 06:31:23;;;;;;;0.90;0.90;;;20.00;99.90;;;;;;5061696;28;20555;-22
2021/06/24 06:33:54;;;;;;;1.77;1.10;;;20.00;99.90;;;;;;5061965;28;20442;-22
2021/06/24 06:36:25;;;;;;;1.47;1.20;;;19.90;99.90;;;;;;5061524;28;20448;-22
2021/06/24 06:38:56;;;;;;;1.00;0.90;;;19.80;99.90;;;;;;5062092;28;20480;-23
2021/06/24 06:41:28;;;;;;;2.80;1.20;;;19.70;99.90;;;;;;5061544;28;20453;-22
2021/06/24 06:44:03;;;;;;;1.33;1.23;;;19.70;99.90;;;;;;5062042;28;20430;-22
2021/06/24 06:46:34;;;;;;;3.40;1.50;;;19.60;99.90;;;;;;5062137;28;20503;-23
2021/06/24 06:49:06;;;;;;;1.77;0.93;;;19.60;99.90;;;;;;5061260;28;20488;-22
2021/06/24 06:51:37;;;;;;;1.70;0.60;;;19.50;99.90;;;;;;5061833;28;20507;-22
2021/06/24 06:54:08;;;;;;;1.03;1.03;;;19.50;99.90;;;;;;5061273;28;20451;-21
2021/06/24 06:56:45;;;;;;;1.13;1.00;;;19.40;99.90;;;;;;5061801;28;20444;-22
2021/06/24 06:59:18;;;;;;;1.77;1.10;;;19.40;99.90;;;;;;5061414;28;20507;-22
2021/06/24 07:02:02;;;;;;;1.60;1.00;;;19.30;99.90;;;;;;5056862;28;20454;-21
2021/06/24 07:04:33;;;;;;;1.33;0.80;;;19.30;99.90;;;;;;5061010;28;20451;-22
2021/06/24 07:07:05;;;;;;;0.77;0.77;;;19.30;99.90;;;;;;5061579;28;20803;-22
2021/06/24 07:09:36;;;;;;;1.20;1.10;;;19.10;99.90;;;;;;5060450;28;20483;-21
2021/06/24 07:12:10;;;;;;;1.00;1.00;;;19.30;99.90;;;;;;5061656;28;20476;-22
2021/06/24 07:14:43;;;;;;;1.70;1.40;;;19.30;99.90;;;;;;5060697;28;20767;-23
2021/06/24 07:17:14;;;;;;;1.50;1.00;;;19.20;99.90;;;;;;5065244;28;20456;-23
2021/06/24 07:19:46;;;;;;;1.03;1.00;;;19.10;99.90;;;;;;5065456;28;20579;-22
2021/06/24 07:22:19;;;;;;;1.40;1.10;;;19.00;99.90;;;;;;5065685;28;20448;-23
2021/06/24 07:24:51;;;;;;;2.00;1.30;;;19.00;99.90;;;;;;5064476;28;20470;-21
2021/06/24 07:27:21;;;;;;;1.27;1.17;;;18.90;99.90;;;;;;5065524;28;20440;-22
2021/06/24 07:29:54;;;;;;;1.30;1.00;;;18.80;99.90;;;;;;5059540;28;20456;-22
2021/06/24 07:32:26;;;;;;;1.50;1.40;;;18.80;99.90;;;;;;5065633;28;20484;-23
2021/06/24 07:34:57;;;;;;;2.00;1.17;;;18.70;99.90;;;;;;5064865;28;20444;-22
2021/06/24 07:37:28;;;;;;;1.17;1.17;;;18.60;99.90;;;;;;5064903;28;20483;-22
2021/06/24 07:39:59;;;;;;;0.80;0.80;;;18.50;99.90;;;;;;5064187;28;20476;-22
2021/06/24 07:42:31;;;;;;;1.27;1.10;;;18.50;99.90;;;;;;5065900;28;20423;-26
2021/06/24 07:45:04;;;;;;;1.30;1.00;;;18.50;99.90;;;;;;5064560;28;20430;-22
2021/06/24 07:47:34;;;;;;;1.53;1.43;;;18.50;99.90;;;;;;5050447;28;20456;-25
2021/06/24 07:50:07;;;;;;;1.23;1.00;;;18.40;99.90;;;;;;5070653;28;20478;-22
2021/06/24 07:52:38;;;;;;;1.23;1.13;;;18.40;99.90;;;;;;5072096;28;20865;-25
2021/06/24 07:55:15;;;;;;;0.90;0.90;;;18.40;99.90;;;;;;5064015;28;20448;-22
2021/06/24 07:57:47;;;;;;;1.07;1.00;;;18.30;99.90;;;;;;5065434;28;20891;-22
2021/06/24 08:00:20;;;;;;;1.13;1.03;;;18.30;99.90;;;;;;5064423;28;20448;-21
2021/06/24 08:02:51;;;;;;;2.60;1.40;;;18.20;99.90;;;;;;5064725;28;20476;-21
2021/06/24 08:05:22;;;;;;;3.37;1.23;;;18.20;99.90;;;;;;5049302;28;20452;-24
2021/06/24 08:07:54;;;;;;;1.23;1.10;;;18.10;99.90;;;;;;5064919;28;20494;-22
2021/06/24 08:10:25;;;;;;;1.97;1.33;;;18.10;99.90;;;;;;5056626;28;20528;-22
2021/06/24 08:12:56;;;;;;;1.37;1.37;;;18.10;99.90;;;;;;5065294;28;20440;-22
2021/06/24 08:15:29;;;;;;;1.90;1.23;;;18.00;99.90;;;;;;5052670;28;20520;-22
2021/06/24 08:18:01;;;;;;;1.73;1.30;;;18.00;99.90;;;;;;5064671;28;20460;-22
2021/06/24 08:20:32;;;;;;;1.30;1.23;;;17.90;99.90;;;;;;5064414;28;20516;-22
2021/06/24 08:23:03;;;;;;;1.23;1.20;;;17.90;99.90;;;;;;5065353;28;20479;-22
2021/06/24 08:25:33;;;;;;;1.53;1.43;;;17.80;99.90;;;;;;5063675;28;20445;-22
2021/06/24 08:28:06;;;;;;;2.87;1.30;;;17.80;99.90;;;;;;5050337;28;20449;-22
2021/06/24 08:30:43;;;;;;;1.67;1.37;;;17.80;99.90;;;;;;5064449;28;20453;-22
2021/06/24 08:33:17;;;;;;;1.67;1.57;;;17.70;99.90;;;;;;5065004;28;20448;-22
2021/06/24 08:35:48;;;;;;;1.63;1.40;;;17.70;99.90;;;;;;5064475;28;20458;-24
2021/06/24 08:38:19;;;;;;;1.40;1.30;;;17.60;99.90;;;;;;5064416;28;20539;-21
2021/06/24 08:41:01;;;;;;;1.50;1.40;;;17.50;99.90;;;;;;5063673;28;20470;-24
2021/06/24 08:43:32;;;;;;;3.13;1.70;;;17.50;99.90;;;;;;5064849;28;20449;-21
2021/06/24 08:46:06;;;;;;;1.63;1.20;;;17.40;99.90;;;;;;5064003;28;20544;-23
2021/06/24 08:48:41;;;;;;;1.60;1.50;;;17.40;99.90;;;;;;5064016;28;20467;-24
2021/06/24 08:51:15;;;;;;;1.50;1.40;;;17.40;99.90;;;;;;5064086;28;20452;-22
2021/06/24 08:53:48;;;;;;;1.40;1.30;;;17.40;99.90;;;;;;5064271;28;20519;-23
2021/06/24 08:56:19;;;;;;;1.60;1.50;;;17.40;99.90;;;;;;5063138;28;21224;-21
2021/06/24 08:58:52;;;;;;;1.57;1.20;;;17.30;99.90;;;;;;5064345;28;21069;-21
2021/06/24 09:01:48;;;;;;;2.20;1.40;;;17.30;99.90;;;;;;5063090;28;20452;-22
2021/06/24 09:04:21;;;;;;;1.33;1.23;;;17.20;99.90;;;;;;5063591;28;20448;-22
2021/06/24 09:06:53;;;;;;;1.60;1.50;;;17.10;99.90;;;;;;5063347;28;20448;-22
2021/06/24 09:09:28;;;;;;;1.40;1.30;;;17.10;99.90;;;;;;5062279;28;20478;-23
2021/06/24 09:12:04;;;;;;;1.40;1.30;;;17.00;99.90;;;;;;5063885;28;20448;-22
2021/06/24 09:14:42;;;;;;;1.27;1.17;;;16.90;99.90;;;;;;5063659;28;20452;-22
2021/06/24 09:17:32;;;;;;;1.47;1.40;;;16.90;99.90;;;;;;5063796;28;20444;-22
2021/06/24 09:20:05;;;;;;;2.10;1.57;;;16.90;99.90;;;;;;5063463;28;20498;-23
2021/06/24 09:22:36;;;;;;;1.60;1.50;;;16.80;99.90;;;;;;5063140;28;20480;-24
2021/06/24 09:25:20;;;;;;;1.47;1.13;;;16.80;99.90;;;;;;5062229;28;20452;-20
2021/06/24 09:27:51;;;;;;;1.77;1.67;;;16.70;99.90;;;;;;5062903;28;20506;-23
2021/06/24 09:30:30;;;;;;;3.60;1.60;;;16.70;99.90;;;;;;5055385;28;20510;-24
2021/06/24 09:33:08;;;;;;;1.87;1.40;;;16.60;99.90;;;;;;5061585;28;20552;-21
2021/06/24 09:35:40;;;;;;;4.70;1.60;;;16.60;99.90;;;;;;5062666;28;20503;-21
2021/06/24 09:38:13;;;;;;;1.30;1.20;;;16.50;99.90;;;;;;5062466;28;20456;-24
2021/06/24 09:40:46;;;;;;;1.43;1.33;;;16.50;99.90;;;;;;5061929;28;20512;-21
2021/06/24 09:43:32;;;;;;;1.97;1.57;;;16.40;99.90;;;;;;5062677;28;20443;-22
2021/06/24 09:46:06;;;;;;;1.97;1.60;;;16.30;99.90;;;;;;5062773;28;20567;-21
2021/06/24 09:48:41;;;;;;;2.10;1.90;;;16.30;99.90;;;;;;5047190;28;20467;-21
2021/06/24 09:51:18;;;;;;;1.93;1.83;;;16.30;99.90;;;;;;5062363;28;20478;-22
2021/06/24 09:53:52;;;;;;;2.13;1.83;;;16.20;99.90;;;;;;5062643;28;20517;-23
2021/06/24 09:56:28;;;;;;;1.60;1.50;;;16.20;99.90;;;;;;5061682;28;20506;-21
2021/06/24 09:59:00;;;;;;;2.00;1.60;;;16.20;99.90;;;;;;5061928;28;20507;-23
2021/06/24 10:01:37;;;;;;;1.63;1.53;;;16.20;99.90;;;;;;5062601;28;20842;-21
2021/06/24 10:04:21;;;;;;;1.10;1.10;;;16.10;99.90;;;;;;5058405;28;20539;-23
2021/06/24 10:06:53;;;;;;;1.50;1.40;;;16.10;99.90;;;;;;5063011;28;20460;-26
2021/06/24 10:09:25;;;;;;;1.80;1.40;;;16.00;99.90;;;;;;5061302;28;20528;-22
2021/06/24 10:11:58;;;;;;;1.83;1.70;;;16.00;99.90;;;;;;5062878;28;20448;-22
2021/06/24 10:14:29;;;;;;;2.00;1.90;;;15.90;99.90;;;;;;5060081;28;20461;-22
2021/06/24 10:17:02;;;;;;;1.87;1.77;;;15.90;99.90;;;;;;5062466;28;20866;-20
2021/06/24 10:19:36;;;;;;;1.80;1.70;;;15.80;99.90;;;;;;5061759;28;20495;-24
2021/06/24 10:22:12;;;;;;;1.87;1.57;;;15.70;99.90;;;;;;5061698;28;20463;-22
2021/06/24 10:24:49;;;;;;;2.00;1.80;;;15.70;99.90;;;;;;5061529;28;20487;-22
2021/06/24 10:27:21;;;;;;;1.70;1.60;;;15.70;99.90;;;;;;5061846;28;20487;-21
2021/06/24 10:29:53;;;;;;;2.50;1.90;;;15.60;99.90;;;;;;5061667;28;20464;-22
2021/06/24 10:32:29;;;;;;;1.83;1.50;;;15.60;99.90;;;;;;5061930;28;20474;-23
2021/06/24 10:35:04;;;;;;;2.20;1.57;;;15.60;99.90;;;;;;5062124;28;20456;-22
2021/06/24 10:37:36;;;;;;;1.70;1.60;;;15.50;99.90;;;;;;5062156;28;20491;-22
2021/06/24 10:40:27;;;;;;;2.10;1.87;;;15.50;99.90;;;;;;5060374;28;20519;-22
2021/06/24 10:42:59;;;;;;;1.73;1.63;;;15.50;99.90;;;;;;5062236;28;20448;-22
2021/06/24 10:45:31;;;;;;;2.43;1.90;;;15.50;99.90;;;;;;5061606;28;20452;-22
2021/06/24 10:48:24;;;;;;;2.20;2.00;;;15.50;99.90;;;;;;5062857;28;20528;-22
2021/06/24 10:51:07;;;;;;;2.30;2.07;;;15.40;99.90;;;;;;5065386;28;20474;-21
2021/06/24 10:53:51;;;;;;;2.20;2.00;;;15.40;99.90;;;;;;5066459;28;20853;-22
2021/06/24 10:56:32;;;;;;;2.17;1.97;;;15.30;99.90;;;;;;5065285;28;20503;-21
2021/06/24 10:59:23;;;;;;;2.10;1.83;;;15.30;99.90;;;;;;5065343;28;20456;-23
2021/06/24 11:01:54;;;;;;;2.70;1.70;;;15.30;99.90;;;;;;5065546;28;20488;-22
2021/06/24 11:04:38;;;;;;;2.20;2.10;;;15.20;99.90;;;;;;5065841;28;21188;-22
2021/06/24 11:07:38;;;;;;;2.60;2.40;;;15.20;99.90;;;;;;5065996;28;20444;-22
2021/06/24 11:10:25;;;;;;;3.03;2.20;;;15.20;99.90;;;;;;5063524;28;20485;-22
2021/06/24 11:13:03;;;;;;;2.07;1.97;;;15.20;99.90;;;;;;5063918;28;20812;-22
2021/06/24 11:15:49;;;;;;;2.13;1.80;;;15.20;99.90;;;;;;5065673;28;20448;-23
2021/06/24 11:18:57;;;;;;;1.70;1.60;;;15.20;99.90;;;;;;5065589;28;20453;-22
2021/06/24 11:21:52;;;;;;;2.47;2.20;;;15.20;99.90;;;;;;5065161;28;20627;-22
2021/06/24 11:24:30;;;;;;;2.33;2.13;;;15.20;99.90;;;;;;5064527;28;20465;-23
2021/06/24 11:27:02;;;;;;;2.20;2.00;;;15.10;99.90;;;;;;5065446;28;20491;-22
2021/06/24 11:29:49;;;;;;;2.63;2.07;;;15.10;99.90;;;;;;5064965;28;20476;-22
2021/06/24 11:32:29;;;;;;;2.20;2.00;;;15.10;99.90;;;;;;5061639;28;20444;-22
2021/06/24 11:35:14;;;;;;;3.13;2.33;;;15.10;99.90;;;;;;5065163;28;20932;-21
2021/06/24 11:37:45;;;;;;;2.03;1.90;;;15.10;99.90;;;;;;5051171;28;20476;-21
2021/06/24 11:40:20;;;;;;;6.03;2.53;;;15.00;99.90;;;;;;5064187;28;20522;-22
2021/06/24 11:42:53;;;;;;;2.83;2.60;;;15.00;99.90;;;;;;5065251;28;20474;-22
2021/06/24 11:45:27;;;;;;;2.40;2.20;;;15.00;99.90;;;;;;5064731;28;20488;-23
2021/06/24 11:47:58;;;;;;;2.47;2.10;;;14.90;99.90;;;;;;5065477;28;20451;-20
2021/06/24 12:04:31;;;;;;;2.30;2.20;;;14.80;99.90;;;;;;5002802;28;20909;-22
2021/06/24 12:07:08;;;;;;;2.90;2.70;;;14.80;99.90;;;;;;5002601;28;20482;-22
2021/06/24 12:09:43;;;;;;;2.10;2.00;;;14.70;99.90;;;;;;5000893;28;20493;-21
2021/06/24 12:12:20;;;;;;;3.00;2.80;;;14.70;99.90;;;;;;5002762;28;20458;-22
2021/06/24 12:14:54;;;;;;;3.00;2.70;;;14.60;99.90;;;;;;5002552;28;20558;-21
2021/06/24 12:17:25;;;;;;;2.20;2.10;;;14.60;99.90;;;;;;5002755;28;20451;-26
2021/06/24 12:20:02;;;;;;;3.50;3.27;;;14.60;99.90;;;;;;4998363;28;20458;-22
2021/06/24 12:22:52;;;;;;;3.27;2.73;;;14.60;99.90;;;;;;4987821;28;20471;-22
2021/06/24 12:25:24;;;;;;;4.27;2.90;;;14.60;99.90;;;;;;5002069;28;20454;-22
2021/06/24 12:27:57;;;;;;;3.50;3.20;;;14.60;99.90;;;;;;5002594;28;20475;-23
2021/06/24 12:30:30;;;;;;;4.03;3.50;;;14.60;99.90;;;;;;5001711;28;20459;-22
2021/06/24 12:33:09;;;;;;;3.70;3.40;;;14.50;99.90;;;;;;5001909;28;20462;-21
2021/06/24 12:35:42;;;;;;;4.33;4.00;;;14.50;99.90;;;;;;5025536;28;20564;-22
2021/06/24 12:38:14;;;;;;;3.80;3.40;;;14.60;99.90;;;;;;5063812;28;20478;-22
2021/06/24 12:40:47;;;;;;;3.87;3.57;;;14.50;99.90;;;;;;5062519;28;20510;-21
2021/06/24 12:43:21;;;;;;;4.90;3.90;;;14.50;99.90;;;;;;5063750;28;20944;-24
2021/06/24 12:45:53;;;;;;;4.10;3.77;;;14.60;99.90;;;;;;5063655;28;20518;-20
2021/06/24 12:48:30;;;;;;;5.27;3.57;;;14.60;99.90;;;;;;5063839;28;20480;-21
2021/06/24 12:51:25;;;;;;;3.83;3.53;;;14.50;99.90;;;;;;5063049;28;20453;-21
2021/06/24 12:53:57;;;;;;;6.73;4.40;;;14.50;99.90;;;;;;5063239;28;20456;-22
2021/06/24 12:56:30;;;;;;;5.07;4.67;;;14.50;99.90;;;;;;5062992;28;20444;-22
2021/06/24 12:59:12;;;;;;;4.50;4.10;;;14.50;99.90;;;;;;5064298;28;20450;-21
2021/06/24 13:01:45;;;;;;;5.00;4.50;;;14.50;99.90;;;;;;5062549;28;20515;-22
2021/06/24 13:04:17;;;;;;;4.83;4.33;;;14.50;99.90;;;;;;5063384;28;20452;-21
2021/06/24 13:06:52;;;;;;;5.27;4.87;;;14.60;99.90;;;;;;5063176;28;20463;-21
2021/06/24 13:09:34;;;;;;;5.30;4.80;;;14.50;99.90;;;;;;5061856;28;20502;-23
2021/06/24 13:12:07;;;;;;;5.30;4.80;;;14.60;99.90;;;;;;5061515;28;21198;-22
2021/06/24 13:14:42;;;;;;;6.10;4.73;;;14.60;99.90;;;;;;5063637;28;20464;-23
2021/06/24 13:17:14;;;;;;;6.30;5.70;;;14.60;99.90;;;;;;5063769;28;20444;-21
2021/06/24 13:19:53;;;;;;;7.70;7.00;;;14.60;99.90;;;;;;5063053;28;20449;-22
2021/06/24 13:22:29;;;;;;;7.30;6.60;;;14.60;99.90;;;;;;5063722;28;20484;-23
2021/06/24 13:25:04;;;;;;;7.07;6.47;;;14.60;99.90;;;;;;5062104;28;20452;-21
2021/06/24 13:27:40;;;;;;;7.53;6.77;;;14.70;99.90;;;;;;5050421;28;20524;-21
2021/06/24 13:30:15;;;;;;;6.50;5.90;;;14.60;99.90;;;;;;5062457;28;20440;-20
2021/06/24 13:32:46;;;;;;;7.17;6.47;;;14.60;99.90;;;;;;5063080;28;20455;-22
2021/06/24 13:35:19;;;;;;;8.13;7.33;;;14.60;99.90;;;;;;5062380;28;20547;-21